createdAt,value
2023-01-09T00:00:36.122Z,1.50
2023-01-09T00:03:03.078Z,1.45
2023-01-09T00:05:29.894Z,1.33
2023-01-09T00:07:56.783Z,1.40
2023-01-09T00:10:23.653Z,1.50
2023-01-09T00:12:51.037Z,1.40
2023-01-09T00:15:18.389Z,1.50
2023-01-09T00:17:48.018Z,1.60
2023-01-09T00:20:14.917Z,1.30
2023-01-09T00:22:41.872Z,1.35
2023-01-09T00:25:09.690Z,1.75
2023-01-09T00:27:37.156Z,1.45
2023-01-09T00:30:07.319Z,2.50
2023-01-09T00:32:34.207Z,1.88
2023-01-09T00:35:01.050Z,1.90
2023-01-09T00:37:27.965Z,2.28
2023-01-09T00:39:54.803Z,1.95
2023-01-09T00:42:26.629Z,1.67
2023-01-09T00:44:57.682Z,1.55
2023-01-09T00:47:32.877Z,1.73
2023-01-09T00:50:03.873Z,1.63
2023-01-09T00:52:32.643Z,1.63
2023-01-09T00:55:00.298Z,1.77
2023-01-09T00:57:27.232Z,1.63
2023-01-09T00:59:54.190Z,1.50
2023-01-09T01:02:21.345Z,1.63
2023-01-09T01:05:06.878Z,1.60
2023-01-09T01:07:39.900Z,1.60
2023-01-09T01:10:13.533Z,1.52
2023-01-09T01:12:40.941Z,1.33
2023-01-09T01:15:08.753Z,1.40
2023-01-09T01:17:37.330Z,1.58
2023-01-09T01:20:06.350Z,1.58
2023-01-09T01:22:33.395Z,1.67
2023-01-09T01:25:00.405Z,1.60
2023-01-09T01:27:28.804Z,1.60
2023-01-09T01:29:55.951Z,1.75
2023-01-09T01:32:23.205Z,1.60
2023-01-09T01:34:50.140Z,1.60
2023-01-09T01:37:16.948Z,1.70
2023-01-09T01:39:43.868Z,1.60
2023-01-09T01:42:13.584Z,1.50
2023-01-09T01:45:10.859Z,1.40
2023-01-09T01:47:49.161Z,1.40
2023-01-09T01:50:22.271Z,1.60
2023-01-09T01:53:00.076Z,1.50
2023-01-09T01:55:27.122Z,1.50
2023-01-09T01:57:59.710Z,1.52
2023-01-09T02:00:32.139Z,1.38
2023-01-09T02:03:00.847Z,1.88
2023-01-09T02:05:27.896Z,1.52
2023-01-09T02:07:54.914Z,1.58
2023-01-09T02:10:25.451Z,1.70
2023-01-09T02:12:52.555Z,1.42
2023-01-09T02:15:20.595Z,1.65
2023-01-09T02:18:08.858Z,1.48
2023-01-09T02:20:44.651Z,1.23
2023-01-09T02:23:29.621Z,1.80
2023-01-09T02:26:08.779Z,1.35
2023-01-09T02:28:54.350Z,1.23
2023-01-09T02:31:46.697Z,1.40
2023-01-09T02:34:31.845Z,1.48
2023-01-09T02:37:27.437Z,1.50
2023-01-09T02:40:06.922Z,1.85
2023-01-09T02:42:35.647Z,1.50
2023-01-09T02:45:02.682Z,1.40
2023-01-09T02:47:29.461Z,1.33
2023-01-09T02:50:00.312Z,1.40
2023-01-09T02:52:48.415Z,1.52
2023-01-09T02:55:52.177Z,1.58
2023-01-09T02:58:41.829Z,1.27
2023-01-09T03:01:48.145Z,1.50
2023-01-09T03:04:46.072Z,1.70
2023-01-09T03:07:35.947Z,1.90
2023-01-09T03:10:12.293Z,1.40
2023-01-09T03:12:42.879Z,1.80
2023-01-09T03:15:15.093Z,1.67
2023-01-09T03:17:46.799Z,1.60
2023-01-09T03:20:19.744Z,1.63
2023-01-09T03:22:57.093Z,1.60
2023-01-09T03:25:24.955Z,1.63
2023-01-09T03:28:01.158Z,1.83
2023-01-09T03:30:29.762Z,2.17
2023-01-09T03:32:57.279Z,1.65
2023-01-09T03:35:25.545Z,1.50
2023-01-09T03:37:52.411Z,1.52
2023-01-09T03:40:20.015Z,1.80
2023-01-09T03:42:47.515Z,1.30
2023-01-09T03:45:14.591Z,1.70
2023-01-09T03:47:41.390Z,1.70
2023-01-09T03:50:08.971Z,1.70
2023-01-09T03:52:36.118Z,1.48
2023-01-09T03:55:03.005Z,2.03
2023-01-09T03:57:29.851Z,1.67
2023-01-09T03:59:56.759Z,2.13
2023-01-09T04:02:23.713Z,1.70
2023-01-09T04:04:50.647Z,1.85
2023-01-09T04:07:17.588Z,1.85
2023-01-09T04:09:44.405Z,2.00
2023-01-09T04:12:11.277Z,1.83
2023-01-09T04:14:38.072Z,1.75
2023-01-09T04:17:04.872Z,1.73
2023-01-09T04:19:31.726Z,1.85
2023-01-09T04:21:58.591Z,1.63
2023-01-09T04:24:25.449Z,1.50
2023-01-09T04:26:52.271Z,1.83
2023-01-09T04:29:19.281Z,1.77
2023-01-09T04:31:46.201Z,2.10
2023-01-09T04:34:13.183Z,1.73
2023-01-09T04:36:40.172Z,1.73
2023-01-09T04:39:07.050Z,1.80
2023-01-09T04:41:48.825Z,2.45
2023-01-09T04:44:27.501Z,1.75
2023-01-09T04:46:56.355Z,1.70
2023-01-09T04:49:23.336Z,1.55
2023-01-09T04:51:50.189Z,1.60
2023-01-09T04:54:17.564Z,2.60
2023-01-09T04:56:44.444Z,1.70
2023-01-09T04:59:11.528Z,1.95
2023-01-09T05:01:38.507Z,2.00
2023-01-09T05:04:06.276Z,1.80
2023-01-09T05:06:34.243Z,1.77
2023-01-09T05:09:01.586Z,1.90
2023-01-09T05:11:28.601Z,1.75
2023-01-09T05:13:55.647Z,1.58
2023-01-09T05:16:22.646Z,1.75
2023-01-09T05:18:49.787Z,1.52
2023-01-09T05:21:16.640Z,2.00
2023-01-09T05:23:43.532Z,2.15
2023-01-09T05:26:12.650Z,1.77
2023-01-09T05:28:39.604Z,1.75
2023-01-09T05:31:08.786Z,1.58
2023-01-09T05:33:35.648Z,1.80
2023-01-09T05:36:02.528Z,2.40
2023-01-09T05:38:29.482Z,1.50
2023-01-09T05:40:56.302Z,1.88
2023-01-09T05:43:23.214Z,1.77
2023-01-09T05:45:50.122Z,1.52
2023-01-09T05:48:17.118Z,1.60
2023-01-09T05:50:43.971Z,2.03
2023-01-09T05:53:10.896Z,1.95
2023-01-09T05:55:37.742Z,1.75
2023-01-09T05:58:04.579Z,1.42
2023-01-09T06:00:31.702Z,1.70
2023-01-09T06:02:59.443Z,1.23
2023-01-09T06:05:26.607Z,1.73
2023-01-09T06:07:53.659Z,1.50
2023-01-09T06:10:20.527Z,1.83
2023-01-09T06:12:49.484Z,1.40
2023-01-09T06:15:17.315Z,1.50
2023-01-09T06:17:44.327Z,1.70
2023-01-09T06:20:11.943Z,1.83
2023-01-09T06:22:38.813Z,1.67
2023-01-09T06:25:06.322Z,1.77
2023-01-09T06:27:33.152Z,1.65
2023-01-09T06:29:59.950Z,1.70
2023-01-09T06:32:26.868Z,1.48
2023-01-09T06:34:53.805Z,1.60
2023-01-09T06:37:20.708Z,1.40
2023-01-09T06:39:47.705Z,1.42
2023-01-09T06:42:14.611Z,1.38
2023-01-09T06:44:41.712Z,1.15
2023-01-09T06:47:08.606Z,1.30
2023-01-09T06:49:35.509Z,1.30
2023-01-09T06:52:05.680Z,1.38
2023-01-09T06:54:32.740Z,1.50
2023-01-09T06:57:00.196Z,1.92
2023-01-09T06:59:27.084Z,1.70
2023-01-09T07:01:54.095Z,1.52
2023-01-09T07:04:22.273Z,1.50
2023-01-09T07:06:49.736Z,1.42
2023-01-09T07:09:16.604Z,1.50
2023-01-09T07:11:43.492Z,1.45
2023-01-09T07:14:10.347Z,1.48
2023-01-09T07:16:37.217Z,1.50
2023-01-09T07:19:04.099Z,1.00
2023-01-09T07:21:32.775Z,1.20
2023-01-09T07:23:59.899Z,1.42
2023-01-09T07:26:26.774Z,1.20
2023-01-09T07:28:54.555Z,1.02
2023-01-09T07:31:21.483Z,1.17
2023-01-09T07:33:48.327Z,2.38
2023-01-09T07:36:15.168Z,1.60
2023-01-09T07:38:42.231Z,1.33
2023-01-09T07:41:09.312Z,1.25
2023-01-09T07:43:38.174Z,1.17
2023-01-09T07:46:06.355Z,1.67
2023-01-09T07:48:33.655Z,1.15
2023-01-09T07:51:00.836Z,1.70
2023-01-09T07:53:28.073Z,1.60
2023-01-09T07:55:55.017Z,1.60
2023-01-09T07:58:21.912Z,1.30
2023-01-09T08:00:50.784Z,1.58
2023-01-09T08:03:17.812Z,1.65
2023-01-09T08:05:45.657Z,1.70
2023-01-09T08:08:14.388Z,1.52
2023-01-09T08:10:41.710Z,1.70
2023-01-09T08:13:08.796Z,1.65
2023-01-09T08:15:35.841Z,1.48
2023-01-09T08:18:02.986Z,1.50
2023-01-09T08:20:30.070Z,1.42
2023-01-09T08:22:57.045Z,1.42
2023-01-09T08:25:24.151Z,1.50
2023-01-09T08:27:51.145Z,1.58
2023-01-09T08:30:19.308Z,1.90
2023-01-09T08:32:51.137Z,1.35
2023-01-09T08:35:18.183Z,1.70
2023-01-09T08:37:46.430Z,1.50
2023-01-09T08:40:14.118Z,1.50
2023-01-09T08:42:59.745Z,1.98
2023-01-09T08:45:45.671Z,1.70
2023-01-09T08:48:12.725Z,1.50
2023-01-09T08:50:39.635Z,2.08
2023-01-09T08:53:06.484Z,1.35
2023-01-09T08:55:33.312Z,1.60
2023-01-09T08:58:00.290Z,1.30
2023-01-09T09:00:27.253Z,1.35
2023-01-09T09:02:58.694Z,1.40
2023-01-09T09:05:27.457Z,1.40
2023-01-09T09:07:55.866Z,1.42
2023-01-09T09:10:24.300Z,0.90
2023-01-09T09:12:52.926Z,1.45
2023-01-09T09:15:23.882Z,1.10
2023-01-09T09:17:56.192Z,0.90
2023-01-09T09:20:25.560Z,1.02
2023-01-09T09:22:52.870Z,1.10
2023-01-09T09:25:20.704Z,1.35
2023-01-09T09:27:48.273Z,1.10
2023-01-09T09:30:17.207Z,1.10
2023-01-09T09:32:44.515Z,1.20
2023-01-09T09:35:11.781Z,1.42
2023-01-09T09:37:39.162Z,1.30
2023-01-09T09:40:17.877Z,1.20
2023-01-09T09:43:19.443Z,1.23
2023-01-09T09:46:11.491Z,1.30
2023-01-09T09:49:14.841Z,1.00
2023-01-09T09:51:56.451Z,1.08
2023-01-09T09:54:34.986Z,0.90
2023-01-09T09:57:05.403Z,1.27
2023-01-09T09:59:38.337Z,1.02
2023-01-09T10:02:30.441Z,1.02
2023-01-09T10:05:05.209Z,1.23
2023-01-09T10:07:42.115Z,1.30
2023-01-09T10:10:40.266Z,1.00
2023-01-09T10:13:27.591Z,1.13
2023-01-09T10:16:03.612Z,1.17
2023-01-09T10:19:01.319Z,1.20
2023-01-09T10:21:34.351Z,1.20
2023-01-09T10:24:07.317Z,0.95
2023-01-09T10:26:47.703Z,1.00
2023-01-09T10:29:28.117Z,1.08
2023-01-09T10:32:18.516Z,1.00
2023-01-09T10:34:53.801Z,1.00
2023-01-09T10:37:35.784Z,0.95
2023-01-09T10:40:14.107Z,0.75
2023-01-09T10:42:48.839Z,0.90
2023-01-09T10:45:30.230Z,1.10
2023-01-09T10:48:19.045Z,1.10
2023-01-09T10:50:47.954Z,1.00
2023-01-09T10:53:22.207Z,1.17
2023-01-09T10:55:54.419Z,1.30
2023-01-09T10:58:22.601Z,1.35
2023-01-09T11:00:51.107Z,1.48
2023-01-09T11:03:23.671Z,1.20
2023-01-09T11:05:53.991Z,1.50
2023-01-09T11:08:52.121Z,1.20
2023-01-09T11:11:36.706Z,1.30
2023-01-09T11:14:09.390Z,1.55
2023-01-09T11:16:36.207Z,1.40
2023-01-09T11:19:03.091Z,1.50
2023-01-09T11:21:40.703Z,1.23
2023-01-09T11:24:19.418Z,1.20
2023-01-09T11:26:47.701Z,1.42
2023-01-09T11:29:19.235Z,1.60
2023-01-09T11:31:59.866Z,1.40
2023-01-09T11:34:32.917Z,1.42
2023-01-09T11:37:13.989Z,1.40
2023-01-09T11:39:48.011Z,1.58
2023-01-09T11:42:44.150Z,1.50
2023-01-09T11:45:24.525Z,1.50
2023-01-09T11:47:51.483Z,1.30
2023-01-09T11:50:29.162Z,1.58
2023-01-09T11:53:13.132Z,1.42
2023-01-09T11:55:42.723Z,1.88
2023-01-09T11:58:19.415Z,1.35
2023-01-09T12:01:09.795Z,1.55
2023-01-09T12:03:56.996Z,1.60
2023-01-09T12:06:36.553Z,1.40
2023-01-09T12:09:07.343Z,1.83
2023-01-09T12:11:42.769Z,1.55
2023-01-09T12:14:30.794Z,1.80
2023-01-09T12:17:04.238Z,2.00
2023-01-09T12:20:19.450Z,1.88
2023-01-09T12:22:57.315Z,1.95
2023-01-09T12:25:47.230Z,1.60
2023-01-09T12:28:19.865Z,1.73
2023-01-09T12:31:22.077Z,2.35
2023-01-09T12:33:58.098Z,1.90
2023-01-09T12:36:55.394Z,2.00
2023-01-09T12:39:37.349Z,2.45
2023-01-09T12:42:19.273Z,2.40
2023-01-09T12:44:55.238Z,1.90
2023-01-09T12:47:44.524Z,2.42
2023-01-09T12:50:15.014Z,2.20
2023-01-09T12:53:11.177Z,2.20
2023-01-09T12:55:44.752Z,2.20
2023-01-09T12:58:31.757Z,2.35
2023-01-09T13:01:02.568Z,2.30
2023-01-09T13:03:45.791Z,2.25
2023-01-09T13:06:17.441Z,2.30
2023-01-09T13:08:53.332Z,2.35
2023-01-09T13:11:34.385Z,2.35
2023-01-09T13:14:18.777Z,2.60
2023-01-09T13:16:50.095Z,2.75
2023-01-09T13:19:34.575Z,2.03
2023-01-09T13:22:05.812Z,2.30
2023-01-09T13:25:05.019Z,2.40
2023-01-09T13:27:40.708Z,2.22
2023-01-09T13:30:13.713Z,2.40
2023-01-09T13:33:15.530Z,2.35
2023-01-09T13:35:53.802Z,2.80
2023-01-09T13:38:23.857Z,2.13
2023-01-09T13:41:26.223Z,2.42
2023-01-09T13:43:59.695Z,2.70
2023-01-09T13:46:43.350Z,2.03
2023-01-09T13:49:29.588Z,2.10
2023-01-09T13:52:01.959Z,2.65
2023-01-09T13:55:01.655Z,2.10
2023-01-09T13:57:35.018Z,1.90
2023-01-09T14:00:14.613Z,3.03
2023-01-09T14:02:42.235Z,2.35
2023-01-09T14:05:09.928Z,2.40
2023-01-09T14:07:41.295Z,2.05
2023-01-09T14:10:36.796Z,2.80
2023-01-09T14:13:12.766Z,2.78
2023-01-09T14:15:41.888Z,3.20
2023-01-09T14:18:22.062Z,2.47
2023-01-09T14:21:02.456Z,2.17
2023-01-09T14:23:51.544Z,2.42
2023-01-09T14:26:42.635Z,3.00
2023-01-09T14:29:31.170Z,3.10
2023-01-09T14:32:22.893Z,2.13
2023-01-09T14:34:57.864Z,2.60
2023-01-09T14:37:27.409Z,2.50
2023-01-09T14:39:55.438Z,2.17
2023-01-09T14:42:27.575Z,2.60
2023-01-09T14:45:14.203Z,2.30
2023-01-09T14:47:46.520Z,3.13
2023-01-09T14:50:39.043Z,2.80
2023-01-09T14:53:15.284Z,2.78
2023-01-09T14:55:57.765Z,3.00
2023-01-09T14:58:27.798Z,2.63
2023-01-09T15:01:00.096Z,2.47
2023-01-09T15:03:38.712Z,2.05
2023-01-09T15:06:06.868Z,2.50
2023-01-09T15:08:33.877Z,2.53
2023-01-09T15:11:01.090Z,3.10
2023-01-09T15:13:44.036Z,2.72
2023-01-09T15:16:22.829Z,2.25
2023-01-09T15:18:54.906Z,2.10
2023-01-09T15:21:26.552Z,1.90
2023-01-09T15:23:53.825Z,2.35
2023-01-09T15:26:29.682Z,2.10
2023-01-09T15:29:12.937Z,1.92
2023-01-09T15:31:43.669Z,1.80
2023-01-09T15:34:17.873Z,1.80
2023-01-09T15:36:44.945Z,3.00
2023-01-09T15:39:18.363Z,1.92
2023-01-09T15:42:05.281Z,2.63
2023-01-09T15:44:36.290Z,1.92
2023-01-09T15:47:06.461Z,1.98
2023-01-09T15:49:34.037Z,1.92
2023-01-09T15:52:01.848Z,2.88
2023-01-09T15:54:33.917Z,1.60
2023-01-09T15:57:22.676Z,1.67
2023-01-09T15:59:49.534Z,1.83
2023-01-09T16:02:35.480Z,2.20
2023-01-09T16:05:08.927Z,1.88
2023-01-09T16:07:35.902Z,2.25
2023-01-09T16:10:02.938Z,1.80
2023-01-09T16:12:29.861Z,2.55
2023-01-09T16:15:01.216Z,2.10
2023-01-09T16:17:31.188Z,2.20
2023-01-09T16:20:12.217Z,2.47
2023-01-09T16:22:53.639Z,2.45
2023-01-09T16:25:31.601Z,2.35
2023-01-09T16:31:01.701Z,2.60
2023-01-09T16:33:30.770Z,2.00
2023-01-09T16:35:58.835Z,2.90
2023-01-09T16:38:26.297Z,2.22
2023-01-09T16:41:17.809Z,2.83
2023-01-09T16:43:45.416Z,2.38
2023-01-09T16:46:13.837Z,2.30
2023-01-09T16:48:41.296Z,2.72
2023-01-09T16:51:18.216Z,2.47
2023-01-09T16:53:45.297Z,2.58
2023-01-09T16:56:24.703Z,2.72
2023-01-09T16:58:54.776Z,2.85
2023-01-09T17:01:23.091Z,2.70
2023-01-09T17:03:50.038Z,2.50
2023-01-09T17:06:28.084Z,2.42
2023-01-09T17:08:55.006Z,2.38
2023-01-09T17:11:31.685Z,2.65
2023-01-09T17:14:02.511Z,2.80
2023-01-09T17:16:30.457Z,2.95
2023-01-09T17:18:57.838Z,2.58
2023-01-09T17:21:29.157Z,2.63
2023-01-09T17:24:15.261Z,2.70
2023-01-09T17:27:05.167Z,2.65
2023-01-09T17:29:33.374Z,2.78
2023-01-09T17:32:00.480Z,2.45
2023-01-09T17:34:27.358Z,2.78
2023-01-09T17:36:55.733Z,3.40
2023-01-09T17:39:23.685Z,2.60
2023-01-09T17:41:50.601Z,2.80
2023-01-09T17:44:17.661Z,3.25
2023-01-09T17:46:44.955Z,2.30
2023-01-09T17:49:21.269Z,2.10
2023-01-09T17:51:48.614Z,2.38
2023-01-09T17:54:15.588Z,2.33
2023-01-09T17:56:46.227Z,2.63
2023-01-09T17:59:14.900Z,3.05
2023-01-09T18:01:43.584Z,3.47
2023-01-09T18:04:10.874Z,4.43
2023-01-09T18:06:38.071Z,4.85
2023-01-09T18:09:06.046Z,4.65
2023-01-09T18:11:33.401Z,5.15
2023-01-09T18:14:00.341Z,4.20
2023-01-09T18:16:28.929Z,4.13
2023-01-09T18:18:58.151Z,4.78
2023-01-09T18:21:27.403Z,3.63
2023-01-09T18:23:54.852Z,3.92
2023-01-09T18:26:22.176Z,3.47
2023-01-09T18:28:51.840Z,3.35
2023-01-09T18:31:22.758Z,3.50
2023-01-09T18:33:54.648Z,2.97
2023-01-09T18:36:23.849Z,2.30
2023-01-09T18:38:54.000Z,2.45
2023-01-09T18:41:21.961Z,2.10
2023-01-09T18:43:53.945Z,2.63
2023-01-09T18:46:24.506Z,2.30
2023-01-09T18:48:53.711Z,2.20
2023-01-09T18:51:21.539Z,1.90
2023-01-09T18:53:49.253Z,1.75
2023-01-09T18:56:17.076Z,1.95
2023-01-09T18:58:43.958Z,1.70
2023-01-09T19:01:11.115Z,1.60
2023-01-09T19:03:38.228Z,1.40
2023-01-09T19:06:05.424Z,1.60
2023-01-09T19:08:33.743Z,1.83
2023-01-09T19:11:00.649Z,1.88
2023-01-09T19:13:32.671Z,1.67
2023-01-09T19:16:00.668Z,1.70
2023-01-09T19:18:29.381Z,2.15
2023-01-09T19:20:56.415Z,1.90
2023-01-09T19:23:26.420Z,2.35
2023-01-09T19:25:54.535Z,2.17
2023-01-09T19:28:21.643Z,2.45
2023-01-09T19:30:55.865Z,2.47
2023-01-09T19:33:24.391Z,2.78
2023-01-09T19:35:52.789Z,2.45
2023-01-09T19:38:22.596Z,2.60
2023-01-09T19:40:49.604Z,2.25
2023-01-09T19:43:26.065Z,2.80
2023-01-09T19:45:56.499Z,2.63
2023-01-09T19:48:27.012Z,2.70
2023-01-09T19:51:05.918Z,2.72
2023-01-09T19:53:34.769Z,2.22
2023-01-09T19:56:15.663Z,2.15
2023-01-09T19:58:47.463Z,2.17
2023-01-09T20:01:17.646Z,2.40
2023-01-09T20:03:46.608Z,1.92
2023-01-09T20:06:18.913Z,2.10
2023-01-09T20:08:50.269Z,2.05
2023-01-09T20:11:18.223Z,1.63
2023-01-09T20:13:45.292Z,1.98
2023-01-09T20:16:17.800Z,1.90
2023-01-09T20:18:44.726Z,2.08
2023-01-09T20:21:12.151Z,1.98
2023-01-09T20:23:39.021Z,2.10
2023-01-09T20:26:05.940Z,2.15
2023-01-09T20:28:32.919Z,2.50
2023-01-09T20:30:59.894Z,2.38
2023-01-09T20:33:26.997Z,2.40
2023-01-09T20:35:54.188Z,2.97
2023-01-09T20:38:21.112Z,3.90
2023-01-09T20:40:48.075Z,2.97
2023-01-09T20:43:14.989Z,2.90
2023-01-09T20:45:42.063Z,3.03
2023-01-09T20:48:11.098Z,2.72
2023-01-09T20:50:38.464Z,2.65
2023-01-09T20:53:07.729Z,2.65
2023-01-09T20:55:34.946Z,2.70
2023-01-09T20:58:01.894Z,2.40
2023-01-09T21:00:32.051Z,2.90
2023-01-09T21:02:59.721Z,2.80
2023-01-09T21:05:26.809Z,2.97
2023-01-09T21:07:53.761Z,3.13
2023-01-09T21:10:20.719Z,2.90
2023-01-09T21:12:47.568Z,3.00
2023-01-09T21:15:17.790Z,2.60
2023-01-09T21:17:44.951Z,2.85
2023-01-09T21:20:14.978Z,3.03
2023-01-09T21:22:42.403Z,3.60
2023-01-09T21:25:09.932Z,3.45
2023-01-09T21:27:43.017Z,3.45
2023-01-09T21:30:11.008Z,4.20
2023-01-09T21:32:38.183Z,3.95
2023-01-09T21:35:06.035Z,3.70
2023-01-09T21:37:35.351Z,3.95
2023-01-09T21:40:03.455Z,3.53
2023-01-09T21:42:49.114Z,4.10
2023-01-09T21:45:36.220Z,4.07
2023-01-09T21:48:07.146Z,4.88
2023-01-09T21:50:35.452Z,4.38
2023-01-09T21:53:02.961Z,3.90
2023-01-09T21:55:32.187Z,3.83
2023-01-09T21:58:01.263Z,3.53
2023-01-09T22:00:29.151Z,4.25
2023-01-09T22:02:56.158Z,3.17
2023-01-09T22:05:27.323Z,3.35
2023-01-09T22:07:56.381Z,3.60
2023-01-09T22:10:23.502Z,3.42
2023-01-09T22:13:10.449Z,3.88
2023-01-09T22:15:37.551Z,3.70
2023-01-09T22:18:04.640Z,3.80
2023-01-09T22:20:31.663Z,3.75
2023-01-09T22:22:58.546Z,3.90
2023-01-09T22:25:25.486Z,3.47
2023-01-09T22:27:52.325Z,3.95
2023-01-09T22:30:19.293Z,3.63
2023-01-09T22:32:46.165Z,3.72
2023-01-09T22:35:13.078Z,3.75
2023-01-09T22:37:40.111Z,3.72
2023-01-09T22:40:07.601Z,3.58
2023-01-09T22:42:34.644Z,3.45
2023-01-09T22:45:01.569Z,3.50
2023-01-09T22:47:28.397Z,3.83
2023-01-09T22:49:55.383Z,3.20
2023-01-09T22:52:22.351Z,3.15
2023-01-09T22:54:49.530Z,3.20
2023-01-09T22:57:16.419Z,3.13
2023-01-09T22:59:43.251Z,4.13
2023-01-09T23:02:10.224Z,3.28
2023-01-09T23:04:37.375Z,3.22
2023-01-09T23:07:04.331Z,3.28
2023-01-09T23:09:31.151Z,3.00
2023-01-09T23:12:04.040Z,3.13
2023-01-09T23:14:33.594Z,2.83
2023-01-09T23:17:00.612Z,3.20
2023-01-09T23:19:27.630Z,3.30
2023-01-09T23:21:54.560Z,3.03
2023-01-09T23:24:21.462Z,2.47
2023-01-09T23:26:49.709Z,2.85
2023-01-09T23:29:16.634Z,2.60
2023-01-09T23:31:43.768Z,2.35
2023-01-09T23:34:19.546Z,2.60
2023-01-09T23:36:49.180Z,2.95
2023-01-09T23:39:16.347Z,2.50
2023-01-09T23:42:01.758Z,2.97
2023-01-09T23:44:29.130Z,2.90
2023-01-09T23:46:56.232Z,2.58
2023-01-09T23:49:23.396Z,2.90
2023-01-09T23:51:50.372Z,2.65
2023-01-09T23:54:18.149Z,3.10
2023-01-09T23:56:45.064Z,3.30
2023-01-09T23:59:13.027Z,2.60
